createdAt,value
2018-03-18T00:00:59.991Z,81.33
2018-03-18T00:03:29.135Z,81.13
2018-03-18T00:05:58.127Z,83.53
2018-03-18T00:08:27.190Z,72.23
2018-03-18T00:10:56.165Z,76.27
2018-03-18T00:13:25.311Z,66.57
2018-03-18T00:15:54.259Z,63.40
2018-03-18T00:18:23.063Z,72.93
2018-03-18T00:20:52.190Z,75.03
2018-03-18T00:23:21.873Z,63.53
2018-03-18T00:25:51.199Z,66.37
2018-03-18T00:28:20.815Z,70.53
2018-03-18T00:30:49.883Z,54.37
2018-03-18T00:33:19.895Z,50.17
2018-03-18T00:35:51.467Z,52.37
2018-03-18T00:38:21.270Z,59.00
2018-03-18T00:40:50.263Z,50.03
2018-03-18T00:43:19.363Z,58.40
2018-03-18T00:45:49.124Z,48.17
2018-03-18T00:48:18.327Z,45.80
2018-03-18T00:50:48.082Z,43.97
2018-03-18T00:53:18.126Z,43.73
2018-03-18T00:55:47.119Z,60.23
2018-03-18T00:58:16.977Z,42.20
2018-03-18T01:00:45.883Z,51.73
2018-03-18T01:03:15.203Z,49.00
2018-03-18T01:05:44.921Z,54.87
2018-03-18T01:08:14.015Z,49.53
2018-03-18T01:10:44.197Z,46.13
2018-03-18T01:13:13.331Z,53.33
2018-03-18T01:15:42.531Z,46.07
2018-03-18T01:18:11.526Z,54.03
2018-03-18T01:20:40.651Z,43.83
2018-03-18T01:23:09.926Z,43.43
2018-03-18T01:25:39.725Z,42.47
2018-03-18T01:28:09.559Z,40.87
2018-03-18T01:30:39.463Z,51.20
2018-03-18T01:33:08.672Z,42.77
2018-03-18T01:35:37.690Z,60.87
2018-03-18T01:38:07.667Z,49.07
2018-03-18T01:40:37.495Z,41.73
2018-03-18T01:43:07.520Z,48.83
2018-03-18T01:45:36.641Z,44.00
2018-03-18T01:48:05.734Z,51.03
2018-03-18T01:50:34.728Z,51.80
2018-03-18T01:53:15.457Z,56.70
2018-03-18T01:55:44.657Z,53.60
2018-03-18T01:58:13.974Z,41.07
2018-03-18T02:00:43.068Z,50.03
2018-03-18T02:03:12.194Z,44.17
2018-03-18T02:05:41.390Z,51.43
2018-03-18T02:08:11.268Z,54.67
2018-03-18T02:10:40.467Z,49.80
2018-03-18T02:13:09.639Z,54.40
2018-03-18T02:15:39.424Z,52.40
2018-03-18T02:18:08.555Z,47.03
2018-03-18T02:20:37.510Z,58.87
2018-03-18T02:23:07.606Z,44.73
2018-03-18T02:25:36.535Z,45.27
2018-03-18T02:28:05.623Z,50.10
2018-03-18T02:30:34.900Z,56.17
2018-03-18T02:33:04.734Z,48.93
2018-03-18T02:35:33.876Z,56.47
2018-03-18T02:38:03.067Z,56.47
2018-03-18T02:40:32.406Z,53.10
2018-03-18T02:43:01.674Z,40.73
2018-03-18T02:45:30.971Z,45.97
2018-03-18T02:48:00.173Z,60.83
2018-03-18T02:50:29.210Z,46.70
2018-03-18T02:52:58.812Z,72.37
2018-03-18T02:55:27.829Z,54.00
2018-03-18T02:57:57.114Z,46.87
2018-03-18T03:00:27.064Z,69.03
2018-03-18T03:02:56.191Z,55.37
2018-03-18T03:05:24.875Z,59.83
2018-03-18T03:07:54.839Z,50.73
2018-03-18T03:10:23.926Z,47.60
2018-03-18T03:12:53.086Z,64.30
2018-03-18T03:15:22.055Z,54.80
2018-03-18T03:17:51.284Z,67.80
2018-03-18T03:20:21.058Z,57.07
2018-03-18T03:22:50.157Z,53.17
2018-03-18T03:25:19.571Z,64.00
2018-03-18T03:27:48.632Z,77.20
2018-03-18T03:30:17.793Z,67.10
2018-03-18T03:32:46.755Z,65.33
2018-03-18T03:35:16.527Z,62.23
2018-03-18T03:37:45.740Z,65.60
2018-03-18T03:40:14.759Z,66.70
2018-03-18T03:42:44.549Z,78.93
2018-03-18T03:45:13.651Z,85.47
2018-03-18T03:47:42.539Z,74.97
2018-03-18T03:50:11.409Z,81.57
2018-03-18T03:52:40.487Z,84.63
2018-03-18T03:55:11.151Z,103.27
2018-03-18T03:57:40.287Z,96.23
2018-03-18T04:00:09.458Z,97.37
2018-03-18T04:02:38.655Z,92.27
2018-03-18T04:05:07.915Z,106.13
2018-03-18T04:07:37.007Z,97.57
2018-03-18T04:10:06.383Z,94.47
2018-03-18T04:12:35.451Z,91.23
2018-03-18T04:15:04.755Z,118.70
2018-03-18T04:17:34.671Z,100.77
2018-03-18T04:20:03.899Z,99.07
2018-03-18T04:22:33.067Z,119.47
2018-03-18T04:25:02.063Z,107.93
2018-03-18T04:27:31.260Z,130.13
2018-03-18T04:30:00.259Z,112.27
2018-03-18T04:32:29.148Z,107.53
2018-03-18T04:34:58.143Z,115.50
2018-03-18T04:37:27.143Z,122.17
2018-03-18T04:39:56.342Z,129.33
2018-03-18T04:42:26.353Z,115.70
2018-03-18T04:44:55.579Z,124.30
2018-03-18T04:47:25.255Z,137.77
2018-03-18T04:49:54.351Z,104.07
2018-03-18T04:52:23.238Z,116.57
2018-03-18T04:54:52.641Z,114.10
2018-03-18T04:57:21.811Z,102.00
2018-03-18T04:59:50.810Z,120.10
2018-03-18T05:02:20.600Z,112.53
2018-03-18T05:04:49.754Z,116.00
2018-03-18T05:07:18.962Z,126.50
2018-03-18T05:09:47.958Z,115.43
2018-03-18T05:12:17.156Z,101.17
2018-03-18T05:14:47.370Z,105.17
2018-03-18T05:17:16.579Z,99.87
2018-03-18T05:19:46.770Z,90.60
2018-03-18T05:22:15.852Z,108.93
2018-03-18T05:24:45.681Z,101.27
2018-03-18T05:27:15.842Z,82.40
2018-03-18T05:29:44.944Z,81.63
2018-03-18T05:32:15.287Z,119.33
2018-03-18T05:34:44.560Z,93.43
2018-03-18T05:37:13.555Z,81.03
2018-03-18T05:39:44.290Z,83.40
2018-03-18T05:42:13.383Z,74.70
2018-03-18T05:44:43.284Z,92.80
2018-03-18T05:47:12.726Z,107.03
2018-03-18T05:49:43.067Z,91.87
2018-03-18T05:52:12.327Z,85.13
2018-03-18T05:54:41.451Z,112.90
2018-03-18T05:57:10.417Z,86.80
2018-03-18T05:59:39.647Z,117.47
2018-03-18T06:02:08.648Z,88.47
2018-03-18T06:04:37.635Z,102.97
2018-03-18T06:07:06.813Z,96.27
2018-03-18T06:09:35.726Z,90.17
2018-03-18T06:12:04.834Z,98.87
2018-03-18T06:14:34.098Z,103.50
2018-03-18T06:17:03.231Z,88.50
2018-03-18T06:19:32.227Z,86.77
2018-03-18T06:22:02.228Z,91.30
2018-03-18T06:24:31.332Z,104.10
2018-03-18T06:27:00.431Z,91.07
2018-03-18T06:29:29.606Z,75.63
2018-03-18T06:31:58.802Z,109.40
2018-03-18T06:34:28.676Z,96.50
2018-03-18T06:36:58.567Z,95.17
2018-03-18T06:39:27.563Z,99.37
2018-03-18T06:41:56.656Z,97.43
2018-03-18T06:44:25.554Z,102.30
2018-03-18T06:46:54.610Z,109.07
2018-03-18T06:49:23.747Z,95.93
2018-03-18T06:51:52.870Z,98.33
2018-03-18T06:54:21.939Z,115.03
2018-03-18T06:56:51.069Z,110.47
2018-03-18T06:59:20.025Z,118.57
2018-03-18T07:01:50.218Z,115.50
2018-03-18T07:04:19.419Z,105.13
2018-03-18T07:06:48.446Z,107.63
2018-03-18T07:09:17.717Z,121.53
2018-03-18T07:11:46.708Z,93.07
2018-03-18T07:14:15.922Z,93.47
2018-03-18T07:16:45.091Z,97.27
2018-03-18T07:19:14.238Z,89.30
2018-03-18T07:21:43.231Z,91.27
2018-03-18T07:24:12.239Z,115.63
2018-03-18T07:26:41.355Z,112.10
2018-03-18T07:29:10.265Z,80.20
2018-03-18T07:31:39.211Z,83.57
2018-03-18T07:34:08.311Z,95.53
2018-03-18T07:36:37.303Z,98.47
2018-03-18T07:39:06.432Z,83.30
2018-03-18T07:41:35.547Z,94.83
2018-03-18T07:44:04.645Z,115.20
2018-03-18T07:46:33.950Z,96.13
2018-03-18T07:49:03.119Z,91.77
2018-03-18T07:51:32.942Z,88.33
2018-03-18T07:54:01.904Z,93.70
2018-03-18T07:56:30.894Z,98.63
2018-03-18T07:59:00.028Z,93.90
2018-03-18T08:01:29.873Z,104.67
2018-03-18T08:03:59.203Z,90.33
2018-03-18T08:06:28.274Z,97.83
2018-03-18T08:08:57.571Z,93.70
2018-03-18T08:11:26.710Z,85.73
2018-03-18T08:13:55.704Z,86.17
2018-03-18T08:16:24.831Z,129.23
2018-03-18T08:18:53.804Z,100.53
2018-03-18T08:21:23.023Z,96.37
2018-03-18T08:23:51.935Z,101.20
2018-03-18T08:26:21.971Z,96.27
2018-03-18T08:28:51.171Z,102.60
2018-03-18T08:31:20.064Z,95.43
2018-03-18T08:33:49.871Z,109.60
2018-03-18T08:36:19.135Z,89.97
2018-03-18T08:38:48.271Z,78.17
2018-03-18T08:41:17.575Z,108.70
2018-03-18T08:43:46.589Z,109.13
2018-03-18T08:46:16.755Z,79.80
2018-03-18T08:48:46.507Z,94.50
2018-03-18T08:51:16.557Z,90.47
2018-03-18T08:53:46.731Z,95.20
2018-03-18T08:56:16.044Z,98.63
2018-03-18T08:58:45.171Z,101.13
2018-03-18T09:01:14.956Z,103.73
2018-03-18T09:03:43.835Z,99.47
2018-03-18T09:06:14.384Z,93.07
2018-03-18T09:08:43.746Z,82.37
2018-03-18T09:11:12.662Z,107.07
2018-03-18T09:13:42.604Z,91.77
2018-03-18T09:16:11.720Z,101.43
2018-03-18T09:18:40.815Z,113.80
2018-03-18T09:21:10.004Z,95.00
2018-03-18T09:23:39.968Z,114.03
2018-03-18T09:26:09.751Z,94.50
2018-03-18T09:28:38.715Z,106.30
2018-03-18T09:31:07.843Z,108.27
2018-03-18T09:33:36.835Z,117.43
2018-03-18T09:36:05.831Z,109.43
2018-03-18T09:38:34.946Z,109.23
2018-03-18T09:41:03.939Z,92.23
2018-03-18T09:43:33.026Z,86.43
2018-03-18T09:46:04.748Z,97.00
2018-03-18T09:48:33.734Z,95.63
2018-03-18T09:51:02.763Z,74.70
2018-03-18T09:53:32.177Z,75.60
2018-03-18T09:56:01.149Z,67.23
2018-03-18T09:58:30.267Z,77.60
2018-03-18T10:00:59.486Z,42.83
2018-03-18T10:03:28.407Z,45.87
2018-03-18T10:05:58.444Z,48.83
2018-03-18T10:08:27.648Z,51.47
2018-03-18T10:10:56.742Z,54.77
2018-03-18T10:13:26.080Z,31.70
2018-03-18T10:15:55.062Z,41.83
2018-03-18T10:18:25.012Z,31.83
2018-03-18T10:20:55.044Z,47.53
2018-03-18T10:23:23.874Z,40.80
2018-03-18T10:25:52.858Z,53.17
2018-03-18T10:28:22.913Z,71.23
2018-03-18T10:30:51.895Z,58.40
2018-03-18T10:33:21.095Z,45.73
2018-03-18T10:35:50.479Z,44.57
2018-03-18T10:38:19.472Z,53.33
2018-03-18T10:40:48.463Z,38.27
2018-03-18T10:43:17.761Z,49.53
2018-03-18T10:45:46.759Z,34.10
2018-03-18T10:48:15.755Z,35.67
2018-03-18T10:50:44.955Z,31.03
2018-03-18T10:53:14.826Z,33.13
2018-03-18T10:55:43.958Z,43.60
2018-03-18T10:58:13.161Z,33.53
2018-03-18T11:00:43.935Z,46.23
2018-03-18T11:03:13.463Z,70.87
2018-03-18T11:05:42.404Z,28.47
2018-03-18T11:08:11.632Z,27.03
2018-03-18T11:10:40.827Z,35.67
2018-03-18T11:13:09.931Z,77.13
2018-03-18T11:15:39.303Z,25.03
2018-03-18T11:18:08.424Z,33.33
2018-03-18T11:20:38.375Z,25.07
2018-03-18T11:23:07.744Z,26.37
2018-03-18T11:25:37.412Z,31.30
2018-03-18T11:28:07.242Z,32.53
2018-03-18T11:30:36.551Z,30.90
2018-03-18T11:33:05.651Z,29.47
2018-03-18T11:35:35.829Z,37.63
2018-03-18T11:38:06.907Z,26.87
2018-03-18T11:40:35.902Z,24.40
2018-03-18T11:43:04.794Z,33.17
2018-03-18T11:45:33.998Z,30.57
2018-03-18T11:48:02.987Z,32.03
2018-03-18T11:50:31.983Z,43.40
2018-03-18T11:53:01.292Z,25.77
2018-03-18T11:55:30.515Z,30.10
2018-03-18T11:57:59.511Z,28.13
2018-03-18T12:00:28.608Z,32.17
2018-03-18T12:02:57.602Z,27.20
2018-03-18T12:05:26.564Z,30.43
2018-03-18T12:07:55.591Z,21.10
2018-03-18T12:10:24.693Z,32.53
2018-03-18T12:12:53.889Z,21.27
2018-03-18T12:15:22.882Z,23.37
2018-03-18T12:17:52.083Z,18.43
2018-03-18T12:20:20.851Z,22.83
2018-03-18T12:22:49.938Z,23.33
2018-03-18T12:25:19.139Z,18.03
2018-03-18T12:27:48.135Z,18.90
2018-03-18T12:30:18.451Z,27.13
2018-03-18T12:32:47.404Z,20.10
2018-03-18T12:35:16.603Z,32.43
2018-03-18T12:37:46.402Z,19.80
2018-03-18T12:40:28.493Z,21.03
2018-03-18T12:43:09.187Z,14.27
2018-03-18T12:45:38.291Z,15.70
2018-03-18T12:48:07.221Z,26.87
2018-03-18T12:50:36.224Z,22.93
2018-03-18T12:53:06.232Z,15.70
2018-03-18T12:55:35.359Z,17.53
2018-03-18T12:58:04.762Z,16.53
2018-03-18T13:00:33.830Z,18.57
2018-03-18T13:03:02.836Z,21.73
2018-03-18T13:05:32.027Z,29.17
2018-03-18T13:08:01.900Z,18.93
2018-03-18T13:10:31.858Z,20.10
2018-03-18T13:13:01.015Z,20.30
2018-03-18T13:15:30.152Z,20.43
2018-03-18T13:18:00.104Z,21.77
2018-03-18T13:20:29.116Z,17.47
2018-03-18T13:22:58.165Z,25.73
2018-03-18T13:25:27.172Z,13.10
2018-03-18T13:27:56.895Z,14.87
2018-03-18T13:30:25.787Z,19.03
2018-03-18T13:32:55.542Z,22.00
2018-03-18T13:35:24.731Z,19.97
2018-03-18T13:37:54.059Z,21.10
2018-03-18T13:40:23.503Z,20.47
2018-03-18T13:42:53.328Z,16.73
2018-03-18T13:45:22.535Z,13.53
2018-03-18T13:47:51.477Z,20.50
2018-03-18T13:50:20.578Z,21.17
2018-03-18T13:52:49.406Z,20.27
2018-03-18T13:55:18.434Z,16.43
2018-03-18T13:57:47.542Z,23.87
2018-03-18T14:00:17.586Z,15.80
2018-03-18T14:02:46.683Z,23.73
2018-03-18T14:05:15.782Z,18.33
2018-03-18T14:07:45.083Z,18.57
2018-03-18T14:10:14.086Z,17.77
2018-03-18T14:12:43.964Z,21.17
2018-03-18T14:15:13.863Z,12.07
2018-03-18T14:17:43.887Z,14.57
2018-03-18T14:20:13.690Z,19.50
2018-03-18T14:22:42.934Z,17.77
2018-03-18T14:25:11.767Z,21.07
2018-03-18T14:27:41.031Z,26.83
2018-03-18T14:30:10.060Z,27.47
2018-03-18T14:32:39.123Z,14.77
2018-03-18T14:35:08.251Z,23.53
2018-03-18T14:37:37.279Z,15.23
2018-03-18T14:40:06.920Z,14.03
2018-03-18T14:42:36.211Z,12.83
2018-03-18T14:45:05.710Z,18.37
2018-03-18T14:47:35.222Z,14.23
2018-03-18T14:50:04.399Z,24.70
2018-03-18T14:52:33.368Z,10.17
2018-03-18T14:55:02.314Z,10.53
2018-03-18T14:57:31.323Z,16.23
2018-03-18T15:00:00.208Z,16.70
2018-03-18T15:02:29.314Z,20.90
2018-03-18T15:04:58.507Z,17.67
2018-03-18T15:07:27.435Z,18.80
2018-03-18T15:09:56.531Z,17.87
2018-03-18T15:12:26.316Z,21.73
2018-03-18T15:14:55.227Z,10.80
2018-03-18T15:17:24.607Z,22.50
2018-03-18T15:19:53.703Z,20.43
2018-03-18T15:22:22.800Z,39.20
2018-03-18T15:24:51.930Z,22.87
2018-03-18T15:27:20.938Z,11.80
2018-03-18T15:29:51.015Z,15.50
2018-03-18T15:32:20.011Z,19.00
2018-03-18T15:34:50.643Z,15.77
2018-03-18T15:37:19.943Z,13.87
2018-03-18T15:39:49.280Z,16.83
2018-03-18T15:42:18.375Z,17.67
2018-03-18T15:44:47.367Z,16.70
2018-03-18T15:47:16.510Z,14.30
2018-03-18T15:49:45.459Z,14.50
2018-03-18T15:52:14.423Z,15.30
2018-03-18T15:54:44.570Z,18.97
2018-03-18T15:57:13.674Z,13.57
2018-03-18T15:59:42.678Z,20.23
2018-03-18T16:02:11.839Z,16.33
2018-03-18T16:04:41.036Z,15.57
2018-03-18T16:07:10.059Z,17.60
2018-03-18T16:09:39.162Z,22.77
2018-03-18T16:12:08.151Z,20.93
2018-03-18T16:14:37.433Z,12.50
2018-03-18T16:17:07.438Z,20.87
2018-03-18T16:19:36.367Z,14.83
2018-03-18T16:22:05.431Z,25.63
2018-03-18T16:24:34.917Z,14.10
2018-03-18T16:27:04.852Z,17.97
2018-03-18T16:29:45.708Z,16.30
2018-03-18T16:32:14.775Z,24.40
2018-03-18T16:34:43.875Z,19.90
2018-03-18T16:37:13.144Z,13.10
2018-03-18T16:39:42.106Z,19.80
2018-03-18T16:42:11.311Z,15.43
2018-03-18T16:44:40.311Z,14.80
2018-03-18T16:47:09.539Z,10.33
2018-03-18T16:49:38.670Z,16.00
2018-03-18T16:52:08.553Z,11.90
2018-03-18T16:54:37.411Z,13.50
2018-03-18T16:57:06.818Z,15.27
2018-03-18T16:59:35.830Z,20.93
2018-03-18T17:02:04.907Z,13.90
2018-03-18T17:04:34.983Z,10.17
2018-03-18T17:07:04.672Z,15.83
2018-03-18T17:09:33.935Z,19.07
2018-03-18T17:12:02.864Z,16.67
2018-03-18T17:14:32.116Z,12.93
2018-03-18T17:17:00.959Z,15.50
2018-03-18T17:19:30.060Z,21.13
2018-03-18T17:21:59.258Z,8.30
2018-03-18T17:24:28.243Z,14.47
2018-03-18T17:26:57.245Z,17.27
2018-03-18T17:29:26.367Z,12.97
2018-03-18T17:31:56.346Z,12.60
2018-03-18T17:34:26.012Z,13.53
2018-03-18T17:36:55.945Z,17.27
2018-03-18T17:39:24.939Z,9.43
2018-03-18T17:41:54.111Z,14.70
2018-03-18T17:44:34.590Z,15.33
2018-03-18T17:47:15.158Z,15.80
2018-03-18T17:49:55.722Z,11.77
2018-03-18T17:52:36.493Z,6.93
2018-03-18T17:55:18.835Z,14.63
2018-03-18T17:57:48.011Z,10.23
2018-03-18T18:00:17.710Z,13.03
2018-03-18T18:02:48.319Z,10.50
2018-03-18T18:05:18.769Z,12.33
2018-03-18T18:07:47.847Z,12.40
2018-03-18T18:10:17.840Z,7.50
2018-03-18T18:12:46.923Z,9.70
2018-03-18T18:15:15.914Z,8.17
2018-03-18T18:17:45.095Z,11.30
2018-03-18T18:20:14.091Z,8.90
2018-03-18T18:22:44.264Z,10.97
2018-03-18T18:25:13.502Z,15.23
2018-03-18T18:27:42.707Z,12.33
2018-03-18T18:30:11.907Z,12.83
2018-03-18T18:32:40.902Z,15.87
2018-03-18T18:35:09.895Z,15.07
2018-03-18T18:37:39.023Z,11.03
2018-03-18T18:40:08.260Z,7.47
2018-03-18T18:42:37.274Z,9.03
2018-03-18T18:45:06.219Z,10.23
2018-03-18T18:47:35.386Z,13.70
2018-03-18T18:50:04.963Z,18.20
2018-03-18T18:52:34.187Z,13.23
2018-03-18T18:55:03.881Z,11.97
2018-03-18T18:57:32.960Z,13.93
2018-03-18T19:00:01.882Z,13.50
2018-03-18T19:02:31.455Z,7.87
2018-03-18T19:05:00.769Z,13.93
2018-03-18T19:07:34.503Z,9.90
2018-03-18T19:10:04.579Z,12.93
2018-03-18T19:12:33.680Z,16.80
2018-03-18T19:15:02.847Z,13.03
2018-03-18T19:17:31.839Z,8.57
2018-03-18T19:20:01.225Z,8.73
2018-03-18T19:22:30.549Z,17.90
2018-03-18T19:24:59.516Z,14.63
2018-03-18T19:27:28.644Z,9.87
2018-03-18T19:29:57.771Z,18.50
2018-03-18T19:32:26.685Z,8.17
2018-03-18T19:34:55.627Z,18.87
2018-03-18T19:37:24.832Z,13.90
2018-03-18T19:39:53.825Z,13.80
2018-03-18T19:42:22.817Z,9.10
2018-03-18T19:44:51.943Z,11.53
2018-03-18T19:47:20.858Z,14.20
2018-03-18T19:49:49.798Z,15.33
2018-03-18T19:52:18.931Z,8.27
2018-03-18T19:54:48.023Z,7.77
2018-03-18T19:57:17.877Z,13.57
2018-03-18T19:59:47.103Z,12.03
2018-03-18T20:02:16.172Z,13.03
2018-03-18T20:04:45.615Z,12.50
2018-03-18T20:07:14.603Z,10.63
2018-03-18T20:09:43.590Z,12.57
2018-03-18T20:12:13.426Z,11.93
2018-03-18T20:14:42.535Z,12.20
2018-03-18T20:17:11.670Z,10.90
2018-03-18T20:19:40.899Z,10.10
2018-03-18T20:22:10.280Z,10.67
2018-03-18T20:24:39.280Z,14.17
2018-03-18T20:27:09.288Z,15.93
2018-03-18T20:29:38.595Z,15.00
2018-03-18T20:32:07.601Z,12.13
2018-03-18T20:34:36.718Z,13.77
2018-03-18T20:37:05.990Z,12.60
2018-03-18T20:39:34.987Z,19.23
2018-03-18T20:42:04.407Z,11.67
2018-03-18T20:44:33.673Z,16.93
2018-03-18T20:47:02.986Z,8.17
2018-03-18T20:49:32.189Z,12.73
2018-03-18T20:52:01.324Z,12.97
2018-03-18T20:54:30.383Z,13.80
2018-03-18T20:56:59.579Z,11.40
2018-03-18T20:59:28.574Z,10.00
2018-03-18T21:01:58.550Z,17.67
2018-03-18T21:04:27.819Z,10.10
2018-03-18T21:06:57.582Z,11.50
2018-03-18T21:09:27.415Z,9.60
2018-03-18T21:11:56.515Z,12.80
2018-03-18T21:14:25.538Z,9.70
2018-03-18T21:16:55.318Z,13.67
2018-03-18T21:19:24.467Z,13.30
2018-03-18T21:21:53.709Z,10.23
2018-03-18T21:24:22.880Z,11.90
2018-03-18T21:26:51.810Z,7.40
2018-03-18T21:29:22.462Z,15.43
2018-03-18T21:31:51.543Z,15.53
2018-03-18T21:34:20.951Z,10.97
2018-03-18T21:36:51.483Z,18.50
2018-03-18T21:39:20.504Z,14.10
2018-03-18T21:41:49.504Z,15.70
2018-03-18T21:44:18.568Z,11.40
2018-03-18T21:46:47.563Z,11.43
2018-03-18T21:49:17.135Z,8.80
2018-03-18T21:51:46.250Z,12.90
2018-03-18T21:54:15.191Z,10.90
2018-03-18T21:56:44.390Z,10.27
2018-03-18T21:59:13.282Z,11.03
2018-03-18T22:01:42.515Z,9.20
2018-03-18T22:04:11.427Z,9.67
2018-03-18T22:06:41.256Z,9.50
2018-03-18T22:09:10.379Z,10.33
2018-03-18T22:11:39.456Z,10.73
2018-03-18T22:14:09.630Z,8.80
2018-03-18T22:16:40.367Z,17.03
2018-03-18T22:19:09.398Z,8.33
2018-03-18T22:21:38.395Z,9.00
2018-03-18T22:24:08.930Z,10.30
2018-03-18T22:26:38.263Z,28.97
2018-03-18T22:29:07.404Z,14.97
2018-03-18T22:31:37.579Z,15.27
2018-03-18T22:34:06.889Z,14.80
2018-03-18T22:36:36.320Z,10.00
2018-03-18T22:39:05.853Z,12.07
2018-03-18T22:41:35.720Z,10.63
2018-03-18T22:44:06.342Z,14.23
2018-03-18T22:46:36.355Z,9.40
2018-03-18T22:49:05.735Z,9.80
2018-03-18T22:51:35.607Z,11.20
2018-03-18T22:54:04.743Z,12.90
2018-03-18T22:56:34.731Z,9.37
2018-03-18T22:59:03.747Z,9.37
2018-03-18T23:01:32.583Z,14.43
2018-03-18T23:04:01.783Z,14.83
2018-03-18T23:06:30.779Z,11.50
2018-03-18T23:08:59.739Z,12.27
2018-03-18T23:11:28.872Z,7.37
2018-03-18T23:13:57.862Z,18.00
2018-03-18T23:16:26.864Z,10.20
2018-03-18T23:18:55.963Z,9.43
2018-03-18T23:21:24.847Z,16.53
2018-03-18T23:23:53.847Z,14.67
2018-03-18T23:26:22.976Z,10.30
2018-03-18T23:28:52.818Z,10.30
2018-03-18T23:31:22.046Z,15.33
2018-03-18T23:33:51.422Z,17.37
2018-03-18T23:36:20.419Z,10.30
2018-03-18T23:38:50.435Z,17.60
2018-03-18T23:41:19.744Z,12.57
2018-03-18T23:43:48.734Z,15.13
2018-03-18T23:46:17.935Z,12.03
2018-03-18T23:48:47.031Z,12.23
2018-03-18T23:51:16.027Z,12.40
2018-03-18T23:53:45.019Z,18.30
2018-03-18T23:56:14.292Z,15.80
2018-03-18T23:58:44.133Z,13.23
